Time;durP1;ratioP1;P1;durP2;ratioP2;P2;SDS_P1;SDS_P2;PMS_P1;PMS_P2;Temp;Humidity;BMP_temperature;BMP_pressure;BME280_temperature;BME280_humidity;BME280_pressure;Samples;Min_cycle;Max_cycle;Signal;HPM_P1;HPM_P2
2022/12/29 00:01:32;;;;;;;5.82;1.20;;;11.90;83.20;;;;;;4955978;28;20417;-79
2022/12/29 00:03:58;;;;;;;13.65;2.05;;;12.00;83.00;;;;;;4958977;29;20023;-79
2022/12/29 00:06:24;;;;;;;13.50;2.50;;;11.90;82.70;;;;;;4960692;29;20027;-79
2022/12/29 00:08:50;;;;;;;4.78;1.40;;;11.90;82.70;;;;;;4960277;29;20030;-79
2022/12/29 00:11:21;;;;;;;15.45;2.08;;;11.90;82.80;;;;;;4945029;29;20118;-79
2022/12/29 00:16:33;;;;;;;9.65;1.60;;;11.90;82.80;;;;;;4951846;29;20046;-79
2022/12/29 00:18:59;;;;;;;8.95;2.10;;;11.90;82.70;;;;;;4959951;29;20020;-79
2022/12/29 00:35:16;;;;;;;9.57;1.65;;;12.00;83.50;;;;;;4948979;29;20026;-79
2022/12/29 00:45:57;;;;;;;8.30;2.50;;;11.90;83.50;;;;;;4952208;29;20098;-79
2022/12/29 00:51:08;;;;;;;7.00;2.30;;;11.90;83.30;;;;;;4959821;29;20059;-79
2022/12/29 00:53:34;;;;;;;7.03;1.48;;;11.80;83.30;;;;;;4956767;29;20098;-79
2022/12/29 00:56:00;;;;;;;14.90;2.30;;;11.90;83.40;;;;;;4958261;29;20035;-79
2022/12/29 00:58:30;;;;;;;6.05;1.67;;;11.90;83.30;;;;;;4952853;29;20396;-79
2022/12/29 01:01:07;;;;;;;9.82;1.40;;;11.90;83.10;;;;;;4958603;29;20027;-80
2022/12/29 01:03:33;;;;;;;5.32;1.65;;;11.90;83.20;;;;;;4959866;29;20139;-79
2022/12/29 01:06:04;;;;;;;8.77;1.60;;;12.00;83.00;;;;;;4951554;29;20090;-79
2022/12/29 01:08:30;;;;;;;6.65;1.60;;;12.00;82.80;;;;;;4958451;29;20090;-79
2022/12/29 01:11:22;;;;;;;9.55;1.70;;;12.00;82.70;;;;;;4954593;29;20509;-79
2022/12/29 01:13:48;;;;;;;7.82;1.67;;;11.90;82.50;;;;;;4950286;29;20602;-79
2022/12/29 01:16:14;;;;;;;4.57;1.08;;;11.90;82.50;;;;;;4955401;29;20438;-79
2022/12/29 01:18:47;;;;;;;6.32;1.75;;;11.90;82.00;;;;;;4956428;29;20376;-79
2022/12/29 01:21:13;;;;;;;5.97;1.63;;;11.80;82.20;;;;;;4948779;29;20031;-79
2022/12/29 01:23:39;;;;;;;12.52;2.70;;;11.80;82.10;;;;;;4959291;29;20090;-79
2022/12/29 01:26:12;;;;;;;6.07;1.15;;;11.80;82.10;;;;;;4957252;29;20058;-79
2022/12/29 01:28:39;;;;;;;6.68;2.17;;;11.80;82.00;;;;;;4950621;29;21026;-79
2022/12/29 01:31:06;;;;;;;12.90;1.90;;;11.70;81.80;;;;;;4957362;29;20054;-79
2022/12/29 01:33:32;;;;;;;10.02;1.67;;;11.80;81.50;;;;;;4957258;29;20531;-79
2022/12/29 01:36:05;;;;;;;8.25;1.83;;;11.80;81.60;;;;;;4950463;29;20034;-79
2022/12/29 01:38:32;;;;;;;6.68;1.60;;;11.80;81.70;;;;;;4957328;29;20031;-78
2022/12/29 01:40:57;;;;;;;7.72;2.20;;;11.70;81.80;;;;;;4958535;29;20147;-78
2022/12/29 01:43:50;;;;;;;6.93;1.35;;;11.80;81.70;;;;;;4955925;29;20197;-79
2022/12/29 01:46:38;;;;;;;16.10;1.92;;;11.70;80.90;;;;;;4954160;29;20419;-79
2022/12/29 01:49:24;;;;;;;4.97;1.52;;;11.70;81.00;;;;;;4958954;29;20036;-78
2022/12/29 01:52:00;;;;;;;8.35;2.05;;;11.70;80.70;;;;;;4956388;29;20023;-78
2022/12/29 01:54:33;;;;;;;13.75;2.00;;;11.70;80.30;;;;;;4951619;29;20028;-78
2022/12/29 01:57:02;;;;;;;6.47;1.63;;;11.70;80.10;;;;;;4958075;29;20077;-79
2022/12/29 01:59:34;;;;;;;7.93;1.75;;;11.70;79.60;;;;;;4957793;29;20440;-78
2022/12/29 02:02:00;;;;;;;10.63;1.85;;;11.60;79.20;;;;;;4952643;29;20091;-79
2022/12/29 02:04:31;;;;;;;2.83;1.10;;;11.50;78.70;;;;;;4958048;29;20058;-78
2022/12/29 02:07:01;;;;;;;8.00;1.50;;;11.50;78.40;;;;;;4958283;29;20023;-78
2022/12/29 02:09:27;;;;;;;;;;;11.50;77.70;;;;;;4952654;29;20031;-78
2022/12/29 02:11:52;;;;;;;7.65;1.63;;;11.60;78.00;;;;;;4949900;29;20465;-78
2022/12/29 02:14:18;;;;;;;9.02;1.83;;;11.50;77.10;;;;;;4957888;29;20035;-79
2022/12/29 02:17:03;;;;;;;5.07;0.98;;;11.50;77.30;;;;;;4949191;29;20023;-78
2022/12/29 02:19:31;;;;;;;8.65;2.83;;;11.60;77.20;;;;;;4938406;29;20039;-78
2022/12/29 02:22:17;;;;;;;2.15;1.15;;;11.60;76.50;;;;;;4941152;29;20038;-79
2022/12/29 02:25:38;;;;;;;9.05;1.25;;;11.50;77.10;;;;;;4947337;29;20082;-79
2022/12/29 02:28:12;;;;;;;5.75;1.30;;;11.40;76.70;;;;;;4916615;29;20064;-79
2022/12/29 02:30:56;;;;;;;8.02;2.22;;;11.50;77.50;;;;;;4901160;29;20047;-79
2022/12/29 02:33:57;;;;;;;4.38;1.00;;;11.50;77.90;;;;;;4937487;29;20090;-79
2022/12/29 02:36:28;;;;;;;;;;;11.50;77.80;;;;;;4938083;29;20423;-79
2022/12/29 02:39:09;;;;;;;11.05;1.55;;;11.50;77.90;;;;;;4954526;29;20304;-78
2022/12/29 02:41:41;;;;;;;4.95;1.58;;;11.50;78.30;;;;;;4952530;29;20505;-78
2022/12/29 02:44:29;;;;;;;6.70;1.60;;;11.60;78.40;;;;;;4955616;29;20039;-79
2022/12/29 02:47:07;;;;;;;5.65;1.55;;;11.50;78.30;;;;;;4952872;29;20200;-79
2022/12/29 02:50:03;;;;;;;5.00;1.48;;;11.50;78.40;;;;;;4950620;28;20114;-79
2022/12/29 02:52:38;;;;;;;8.13;1.70;;;11.50;78.80;;;;;;4937418;29;20415;-79
2022/12/29 02:55:04;;;;;;;9.98;1.95;;;11.50;78.60;;;;;;4949522;29;20047;-79
2022/12/29 02:57:34;;;;;;;13.38;1.83;;;11.50;78.70;;;;;;4956636;29;20011;-79
2022/12/29 03:00:07;;;;;;;13.10;1.57;;;11.50;78.90;;;;;;4951422;29;20024;-79
2022/12/29 03:02:50;;;;;;;6.95;1.48;;;11.50;79.00;;;;;;4956992;29;20885;-79
2022/12/29 03:05:20;;;;;;;3.38;1.55;;;11.40;78.90;;;;;;4945230;29;20051;-79
2022/12/29 03:08:07;;;;;;;7.28;1.45;;;11.40;78.90;;;;;;4944750;29;20038;-79
2022/12/29 03:10:48;;;;;;;9.07;1.80;;;11.40;79.10;;;;;;4955417;29;20027;-79
2022/12/29 03:16:42;;;;;;;11.68;2.25;;;11.50;79.00;;;;;;4944116;29;20055;-79
2022/12/29 03:19:18;;;;;;;6.60;1.90;;;11.40;79.10;;;;;;4950070;29;20039;-79
2022/12/29 03:22:27;;;;;;;11.25;2.33;;;11.40;79.20;;;;;;4955490;29;20086;-78
2022/12/29 03:24:56;;;;;;;7.63;1.30;;;11.40;79.30;;;;;;4949348;29;20020;-79
2022/12/29 03:27:28;;;;;;;7.32;1.65;;;11.30;79.20;;;;;;4940686;29;20024;-80
2022/12/29 03:30:11;;;;;;;9.05;1.55;;;11.40;79.60;;;;;;4955702;29;20043;-79
2022/12/29 03:32:59;;;;;;;5.15;1.40;;;11.40;79.60;;;;;;4954905;29;20138;-79
2022/12/29 03:35:28;;;;;;;7.07;1.30;;;11.30;79.60;;;;;;4942080;28;20036;-79
2022/12/29 03:38:18;;;;;;;3.25;1.17;;;11.40;79.80;;;;;;4956114;29;20030;-78
2022/12/29 03:40:54;;;;;;;7.88;1.80;;;11.30;79.70;;;;;;4960761;29;20035;-79
2022/12/29 03:43:20;;;;;;;12.95;1.77;;;11.30;79.60;;;;;;4958388;29;20027;-79
2022/12/29 03:45:46;;;;;;;4.32;1.30;;;11.30;79.80;;;;;;4950059;29;20083;-79
2022/12/29 03:48:11;;;;;;;4.93;1.27;;;11.30;79.60;;;;;;4958992;29;20055;-79
2022/12/29 03:50:37;;;;;;;11.32;1.88;;;11.30;79.70;;;;;;4948982;29;20403;-79
2022/12/29 03:53:03;;;;;;;8.30;1.48;;;11.20;79.30;;;;;;4961502;29;20517;-79
2022/12/29 03:55:29;;;;;;;8.93;2.05;;;11.30;79.50;;;;;;4949282;29;20059;-79
2022/12/29 03:57:59;;;;;;;7.90;1.52;;;11.20;79.50;;;;;;4959091;29;20042;-79
2022/12/29 04:00:25;;;;;;;12.45;1.55;;;11.30;79.70;;;;;;4959510;29;20547;-79
2022/12/29 04:02:51;;;;;;;5.85;1.63;;;11.20;79.00;;;;;;4955788;29;20031;-79
2022/12/29 04:05:17;;;;;;;6.68;1.23;;;11.30;79.10;;;;;;4960723;29;20039;-79
2022/12/29 04:07:43;;;;;;;6.38;1.33;;;11.30;79.00;;;;;;4959376;29;20558;-79
2022/12/29 04:10:09;;;;;;;10.63;1.52;;;11.20;79.20;;;;;;4959083;29;20031;-79
2022/12/29 04:12:34;;;;;;;11.50;1.77;;;11.20;79.10;;;;;;4954131;29;20039;-79
2022/12/29 04:15:20;;;;;;;10.55;1.70;;;11.20;78.70;;;;;;4953030;29;20063;-79
2022/12/29 04:17:46;;;;;;;9.88;2.03;;;11.20;79.20;;;;;;4956971;29;20031;-79
2022/12/29 04:23:00;;;;;;;5.03;1.30;;;11.20;79.20;;;;;;4946854;29;20108;-79
2022/12/29 04:25:26;;;;;;;3.17;1.45;;;11.30;79.30;;;;;;4954169;29;20560;-79
2022/12/29 04:27:52;;;;;;;5.85;1.25;;;11.20;79.20;;;;;;4947340;29;20039;-79
2022/12/29 04:30:18;;;;;;;3.53;1.27;;;11.20;79.40;;;;;;4959825;29;20058;-79
2022/12/29 04:32:43;;;;;;;2.35;1.02;;;11.20;79.50;;;;;;4956581;29;20035;-79
2022/12/29 04:35:09;;;;;;;7.45;1.63;;;11.10;79.60;;;;;;4958100;29;20023;-79
2022/12/29 04:37:34;;;;;;;5.38;1.55;;;11.10;79.70;;;;;;4958503;29;20027;-79
2022/12/29 04:40:00;;;;;;;6.93;2.00;;;11.10;80.00;;;;;;4946135;29;20042;-79
2022/12/29 04:42:26;;;;;;;11.63;2.55;;;11.10;80.40;;;;;;4958130;29;20027;-79
2022/12/29 04:44:51;;;;;;;12.15;2.03;;;11.10;80.50;;;;;;4956856;29;20035;-79
2022/12/29 04:47:17;;;;;;;8.93;1.70;;;11.20;80.30;;;;;;4947410;28;20019;-79
2022/12/29 04:49:43;;;;;;;2.67;0.95;;;11.10;80.50;;;;;;4959570;29;20225;-79
2022/12/29 04:52:08;;;;;;;8.93;1.60;;;11.10;80.50;;;;;;4955337;29;20035;-79
2022/12/29 04:54:34;;;;;;;10.93;2.72;;;11.10;80.50;;;;;;4959046;29;20035;-79
2022/12/29 04:57:00;;;;;;;5.38;1.27;;;11.10;80.60;;;;;;4958775;29;20058;-79
2022/12/29 04:59:26;;;;;;;11.45;1.67;;;11.20;80.40;;;;;;4956555;29;20118;-79
2022/12/29 05:01:51;;;;;;;5.85;1.80;;;11.20;80.50;;;;;;4952356;29;20032;-79
2022/12/29 05:04:17;;;;;;;12.00;1.88;;;11.10;80.30;;;;;;4959104;29;20023;-79
2022/12/29 05:06:42;;;;;;;3.75;1.48;;;11.00;80.40;;;;;;4958494;29;20470;-79
2022/12/29 05:09:08;;;;;;;7.20;1.50;;;11.00;80.60;;;;;;4949053;29;20086;-79
2022/12/29 05:11:34;;;;;;;6.32;1.83;;;11.00;80.50;;;;;;4957689;29;20046;-79
2022/12/29 05:14:00;;;;;;;17.92;2.53;;;10.90;80.60;;;;;;4956065;29;20706;-79
2022/12/29 05:16:25;;;;;;;10.85;2.42;;;11.00;80.50;;;;;;4944576;29;20114;-79
2022/12/29 05:18:51;;;;;;;8.27;1.52;;;10.90;80.40;;;;;;4955741;29;20111;-79
2022/12/29 05:21:17;;;;;;;7.28;1.63;;;11.00;80.50;;;;;;4950633;29;20039;-79
2022/12/29 05:23:43;;;;;;;14.38;1.88;;;11.00;80.20;;;;;;4953167;29;20180;-78
2022/12/29 05:26:08;;;;;;;5.72;1.88;;;11.00;79.90;;;;;;4943528;29;20032;-79
2022/12/29 05:28:34;;;;;;;8.77;2.10;;;11.00;79.80;;;;;;4946675;29;20034;-79
2022/12/29 05:31:00;;;;;;;12.82;2.53;;;11.00;79.50;;;;;;4947000;29;20051;-79
2022/12/29 05:33:25;;;;;;;9.63;1.67;;;10.90;79.70;;;;;;4954408;29;20561;-80
2022/12/29 05:35:51;;;;;;;20.50;3.00;;;10.80;79.50;;;;;;4953071;29;20067;-79
2022/12/29 05:38:17;;;;;;;6.28;2.22;;;10.80;80.00;;;;;;4958812;29;20440;-79
2022/12/29 05:40:43;;;;;;;6.40;1.45;;;10.80;79.90;;;;;;4957004;29;20031;-78
2022/12/29 05:43:09;;;;;;;6.72;1.75;;;10.80;79.80;;;;;;4955449;29;20023;-79
2022/12/29 05:45:36;;;;;;;5.75;1.52;;;10.80;79.80;;;;;;4958797;29;20082;-79
2022/12/29 05:48:02;;;;;;;9.13;2.30;;;10.70;80.10;;;;;;4956550;29;20079;-79
2022/12/29 05:50:28;;;;;;;7.07;1.95;;;10.70;80.30;;;;;;4958107;29;20039;-79
2022/12/29 05:52:54;;;;;;;8.48;2.00;;;10.80;80.30;;;;;;4946589;29;20043;-79
2022/12/29 05:55:19;;;;;;;7.78;2.20;;;10.70;80.10;;;;;;4957107;29;20030;-79
2022/12/29 05:57:45;;;;;;;10.05;1.90;;;10.70;80.10;;;;;;4958148;29;20027;-79
2022/12/29 06:00:11;;;;;;;2.70;1.00;;;10.60;80.30;;;;;;4947599;28;20034;-79
2022/12/29 06:02:37;;;;;;;6.28;1.48;;;10.50;79.90;;;;;;4952547;29;20114;-79
2022/12/29 06:05:02;;;;;;;7.28;2.47;;;10.50;80.40;;;;;;4956308;29;20059;-79
2022/12/29 06:07:28;;;;;;;8.68;2.25;;;10.50;80.20;;;;;;4954750;29;20031;-79
2022/12/29 06:09:54;;;;;;;15.95;2.83;;;10.60;80.10;;;;;;4950676;29;20039;-79
2022/12/29 06:12:19;;;;;;;9.40;2.28;;;10.60;79.80;;;;;;4957922;29;20027;-79
2022/12/29 06:14:50;;;;;;;11.38;2.63;;;10.60;79.90;;;;;;4950653;29;20027;-79
2022/12/29 06:17:15;;;;;;;9.82;2.92;;;10.60;79.80;;;;;;4955859;29;20027;-79
2022/12/29 06:19:41;;;;;;;17.92;2.60;;;10.60;79.40;;;;;;4958084;29;20455;-79
2022/12/29 06:22:07;;;;;;;14.88;2.42;;;10.50;79.40;;;;;;4956549;28;20058;-79
2022/12/29 06:24:33;;;;;;;15.93;2.97;;;10.50;79.30;;;;;;4958053;29;20403;-79
2022/12/29 06:26:58;;;;;;;13.02;2.25;;;10.50;79.60;;;;;;4950066;29;20032;-80
2022/12/29 06:29:24;;;;;;;10.73;2.35;;;10.50;79.00;;;;;;4947287;29;20042;-79
2022/12/29 06:31:55;;;;;;;11.85;2.00;;;10.50;79.40;;;;;;4955723;29;20058;-79
2022/12/29 06:34:21;;;;;;;9.48;1.80;;;10.30;79.30;;;;;;4957419;29;20086;-79
2022/12/29 06:36:47;;;;;;;8.57;1.92;;;10.40;79.20;;;;;;4949165;29;20023;-79
2022/12/29 06:39:12;;;;;;;3.28;1.30;;;10.40;79.50;;;;;;4954045;29;20026;-79
2022/12/29 06:41:38;;;;;;;10.43;2.13;;;10.30;79.20;;;;;;4956023;29;20077;-79
2022/12/29 06:44:04;;;;;;;10.40;2.72;;;10.40;79.10;;;;;;4958100;29;20049;-79
2022/12/29 06:46:30;;;;;;;8.85;2.42;;;10.40;79.00;;;;;;4956061;29;20027;-79
2022/12/29 06:49:03;;;;;;;15.63;2.92;;;10.30;78.90;;;;;;4955836;29;20066;-79
2022/12/29 06:51:28;;;;;;;6.38;1.63;;;10.30;79.00;;;;;;4956709;29;20448;-79
2022/12/29 06:53:54;;;;;;;8.68;2.03;;;10.30;79.40;;;;;;4956139;29;20042;-79
2022/12/29 06:56:20;;;;;;;5.57;1.42;;;10.30;79.20;;;;;;4957748;29;20030;-79
2022/12/29 06:58:45;;;;;;;6.57;1.75;;;10.30;79.20;;;;;;4945827;29;20038;-79
2022/12/29 07:01:11;;;;;;;7.53;1.75;;;10.30;79.30;;;;;;4956623;29;20023;-79
2022/12/29 07:03:37;;;;;;;9.18;2.67;;;10.30;79.30;;;;;;4956218;29;20027;-79
2022/12/29 07:06:03;;;;;;;9.70;2.25;;;10.30;79.40;;;;;;4951425;29;20047;-79
2022/12/29 07:08:28;;;;;;;7.18;1.75;;;10.40;79.60;;;;;;4957533;29;20034;-79
2022/12/29 07:10:54;;;;;;;18.83;2.38;;;10.30;79.30;;;;;;4955787;28;20035;-79
2022/12/29 07:13:20;;;;;;;9.75;2.53;;;10.30;79.60;;;;;;4955952;29;20402;-79
2022/12/29 07:15:45;;;;;;;6.43;1.80;;;10.30;79.90;;;;;;4957176;29;20050;-79
2022/12/29 07:18:11;;;;;;;12.38;2.00;;;10.40;79.70;;;;;;4951755;29;20376;-79
2022/12/29 07:20:36;;;;;;;12.10;2.17;;;10.40;79.90;;;;;;4952231;29;20024;-79
2022/12/29 07:23:10;;;;;;;15.30;2.20;;;10.40;79.80;;;;;;4945660;29;20030;-79
2022/12/29 07:25:35;;;;;;;9.60;1.98;;;10.40;79.40;;;;;;4949685;29;20115;-79
2022/12/29 07:28:02;;;;;;;17.67;2.88;;;10.40;79.60;;;;;;4943312;29;20065;-80
2022/12/29 07:30:27;;;;;;;6.93;2.05;;;10.40;79.80;;;;;;4954402;29;20049;-80
2022/12/29 07:32:53;;;;;;;9.23;2.08;;;10.40;79.80;;;;;;4957096;29;20083;-79
2022/12/29 07:35:19;;;;;;;11.02;3.25;;;10.40;79.50;;;;;;4956877;29;20098;-79
2022/12/29 07:37:45;;;;;;;16.08;2.25;;;10.30;79.70;;;;;;4950134;29;20020;-79
2022/12/29 07:40:11;;;;;;;6.72;1.90;;;10.30;79.70;;;;;;4957194;29;20479;-79
2022/12/29 07:42:37;;;;;;;11.35;2.47;;;10.30;79.60;;;;;;4947772;29;20027;-79
2022/12/29 07:45:03;;;;;;;7.07;1.80;;;10.30;79.80;;;;;;4953956;29;20027;-79
2022/12/29 07:47:28;;;;;;;7.95;2.03;;;10.30;79.70;;;;;;4955433;29;20028;-79
2022/12/29 07:49:54;;;;;;;14.07;1.73;;;10.30;79.80;;;;;;4956877;29;20063;-79
2022/12/29 07:52:20;;;;;;;9.60;2.08;;;10.20;79.60;;;;;;4955895;29;20019;-79
2022/12/29 07:54:45;;;;;;;12.55;1.63;;;10.20;79.60;;;;;;4953606;29;20067;-79
2022/12/29 07:57:21;;;;;;;13.50;2.30;;;10.20;79.70;;;;;;4956107;29;20054;-79
2022/12/29 07:59:46;;;;;;;6.10;2.30;;;10.20;79.80;;;;;;4953968;29;20031;-79
2022/12/29 08:02:12;;;;;;;7.45;1.70;;;10.20;79.90;;;;;;4956313;29;20026;-79
2022/12/29 08:04:38;;;;;;;7.60;2.05;;;10.10;80.10;;;;;;4957515;29;20062;-79
2022/12/29 08:07:04;;;;;;;14.60;2.30;;;10.10;80.30;;;;;;4955741;29;20058;-79
2022/12/29 08:09:29;;;;;;;13.30;1.80;;;10.10;80.40;;;;;;4952546;29;20622;-79
2022/12/29 08:11:55;;;;;;;9.30;1.90;;;10.10;80.30;;;;;;4951046;29;20439;-79
2022/12/29 08:14:21;;;;;;;15.98;2.78;;;10.10;80.50;;;;;;4956904;29;20515;-79
2022/12/29 08:16:46;;;;;;;4.30;1.83;;;10.10;80.50;;;;;;4944187;29;20522;-80
2022/12/29 08:19:12;;;;;;;9.63;2.50;;;10.20;80.40;;;;;;4956114;29;20102;-79
2022/12/29 08:21:39;;;;;;;10.57;2.15;;;10.10;80.50;;;;;;4956615;28;20483;-79
2022/12/29 08:24:05;;;;;;;13.48;2.47;;;10.10;80.30;;;;;;4958809;29;20467;-79
2022/12/29 08:26:31;;;;;;;13.80;2.40;;;10.10;80.30;;;;;;4952249;29;20503;-80
2022/12/29 08:28:57;;;;;;;9.77;1.83;;;10.00;80.30;;;;;;4952215;29;20061;-80
2022/12/29 08:31:23;;;;;;;4.80;1.95;;;10.10;80.20;;;;;;4950880;29;20047;-79
2022/12/29 08:33:49;;;;;;;9.38;2.22;;;10.10;80.30;;;;;;4960288;29;20114;-79
2022/12/29 08:36:15;;;;;;;9.63;2.22;;;10.10;79.90;;;;;;4957341;29;20035;-79
2022/12/29 08:38:41;;;;;;;16.17;2.75;;;10.20;80.00;;;;;;4960136;29;20027;-78
2022/12/29 08:41:07;;;;;;;11.98;2.60;;;10.20;79.90;;;;;;4948544;29;20032;-79
2022/12/29 08:43:32;;;;;;;10.27;2.63;;;10.20;79.70;;;;;;4959575;29;20023;-79
2022/12/29 08:45:58;;;;;;;13.15;2.70;;;10.20;79.80;;;;;;4957513;29;20037;-79
2022/12/29 08:48:25;;;;;;;8.90;2.35;;;10.30;79.60;;;;;;4951985;29;20040;-79
2022/12/29 08:50:50;;;;;;;16.58;2.80;;;10.30;79.60;;;;;;4958558;29;20027;-79
2022/12/29 08:53:17;;;;;;;23.23;3.00;;;10.30;79.50;;;;;;4958651;29;20042;-79
2022/12/29 08:55:46;;;;;;;12.38;2.90;;;10.30;79.30;;;;;;4958154;29;20083;-79
2022/12/29 08:58:14;;;;;;;7.32;2.13;;;10.30;79.30;;;;;;4958158;29;20019;-79
2022/12/29 09:00:40;;;;;;;13.00;2.60;;;10.30;79.20;;;;;;4959384;29;20106;-79
2022/12/29 09:03:06;;;;;;;8.77;2.10;;;10.30;79.10;;;;;;4953290;29;20460;-79
2022/12/29 09:05:32;;;;;;;8.32;1.90;;;10.40;79.00;;;;;;4959488;29;20111;-79
2022/12/29 09:07:57;;;;;;;8.57;2.25;;;10.50;78.90;;;;;;4958368;29;20035;-79
2022/12/29 09:10:23;;;;;;;7.45;1.85;;;10.40;78.80;;;;;;4958975;29;20066;-79
2022/12/29 09:12:49;;;;;;;16.55;3.03;;;10.50;78.90;;;;;;4959391;28;20027;-79
2022/12/29 09:15:15;;;;;;;10.90;1.98;;;10.40;78.80;;;;;;4953968;29;20027;-79
2022/12/29 09:17:44;;;;;;;9.38;2.75;;;10.50;78.70;;;;;;4947720;29;20106;-79
2022/12/29 09:20:15;;;;;;;9.10;2.65;;;10.40;78.90;;;;;;4945075;29;20036;-79
2022/12/29 09:22:41;;;;;;;9.65;2.00;;;10.50;79.10;;;;;;4957788;29;20026;-80
2022/12/29 09:25:08;;;;;;;8.63;2.30;;;10.40;79.30;;;;;;4959182;29;20583;-80
2022/12/29 09:27:33;;;;;;;19.63;3.60;;;10.50;79.30;;;;;;4945152;29;20380;-80
2022/12/29 09:29:59;;;;;;;15.85;2.58;;;10.50;79.40;;;;;;4957978;29;20083;-80
2022/12/29 09:32:25;;;;;;;9.75;2.08;;;10.60;79.60;;;;;;4954806;29;20051;-79
2022/12/29 09:34:50;;;;;;;11.55;2.88;;;10.60;79.50;;;;;;4956839;28;20047;-79
2022/12/29 09:37:16;;;;;;;13.73;2.78;;;10.70;79.50;;;;;;4951862;29;20028;-79
2022/12/29 09:39:42;;;;;;;9.27;2.38;;;10.70;79.30;;;;;;4955025;29;20062;-79
2022/12/29 09:42:18;;;;;;;9.23;2.15;;;10.80;79.10;;;;;;4949658;29;20035;-79
2022/12/29 09:44:46;;;;;;;9.05;2.05;;;10.80;79.10;;;;;;4957293;29;20040;-80
2022/12/29 09:47:15;;;;;;;7.78;2.03;;;10.80;79.10;;;;;;4956719;29;20038;-80
2022/12/29 09:49:45;;;;;;;8.70;2.13;;;10.80;79.20;;;;;;4948484;29;20066;-79
2022/12/29 09:52:21;;;;;;;7.95;2.70;;;10.80;79.30;;;;;;4959083;29;20031;-80
2022/12/29 09:55:18;;;;;;;9.25;1.85;;;10.90;79.10;;;;;;4950692;29;20059;-80
2022/12/29 09:57:58;;;;;;;10.27;2.17;;;10.90;79.10;;;;;;4949430;29;20030;-80
2022/12/29 10:00:53;;;;;;;10.88;3.05;;;10.90;78.70;;;;;;4957145;29;20027;-79
2022/12/29 10:03:22;;;;;;;11.50;2.25;;;11.00;78.80;;;;;;4951881;29;20082;-80
2022/12/29 10:06:11;;;;;;;15.45;2.50;;;11.10;78.50;;;;;;4956078;29;20031;-79
2022/12/29 10:08:46;;;;;;;6.57;2.10;;;11.20;78.40;;;;;;4954781;29;20043;-80
2022/12/29 10:11:37;;;;;;;6.00;1.50;;;11.20;78.30;;;;;;4956958;29;20051;-79
2022/12/29 10:14:27;;;;;;;9.52;2.25;;;11.20;78.20;;;;;;4955772;29;20038;-80
2022/12/29 10:17:22;;;;;;;9.00;2.08;;;11.20;78.20;;;;;;4958027;29;20027;-80
2022/12/29 10:20:00;;;;;;;7.72;2.28;;;11.30;78.10;;;;;;4958356;29;20085;-79
2022/12/29 10:22:47;;;;;;;12.57;2.45;;;11.40;77.90;;;;;;4951780;28;20026;-80
2022/12/29 10:25:20;;;;;;;9.05;2.47;;;11.50;77.90;;;;;;4951189;29;20031;-80
2022/12/29 10:27:50;;;;;;;9.05;2.83;;;11.60;77.50;;;;;;4944350;29;20391;-80
2022/12/29 10:30:17;;;;;;;5.43;1.45;;;11.50;77.20;;;;;;4956859;29;20046;-79
2022/12/29 10:32:52;;;;;;;11.05;2.20;;;11.60;77.20;;;;;;4956939;29;20055;-79
2022/12/29 10:35:40;;;;;;;10.13;2.25;;;11.60;76.90;;;;;;4956677;29;20023;-79
2022/12/29 10:38:30;;;;;;;9.63;1.92;;;11.70;76.70;;;;;;4951129;29;20038;-79
2022/12/29 10:41:25;;;;;;;8.30;2.47;;;11.80;76.50;;;;;;4957848;29;20019;-79
2022/12/29 10:43:56;;;;;;;12.40;2.72;;;11.80;76.30;;;;;;4943999;29;20035;-79
2022/12/29 10:46:27;;;;;;;6.75;2.17;;;11.90;75.90;;;;;;4946876;28;20039;-80
2022/12/29 10:48:53;;;;;;;9.05;2.00;;;11.80;75.80;;;;;;4957875;29;20031;-79
2022/12/29 10:51:27;;;;;;;3.92;2.15;;;11.90;75.90;;;;;;4955536;29;20042;-80
2022/12/29 10:54:00;;;;;;;5.68;1.70;;;11.80;75.20;;;;;;4956169;29;20035;-80
2022/12/29 10:56:39;;;;;;;7.95;1.90;;;11.80;74.80;;;;;;4951763;28;20016;-80
2022/12/29 10:59:28;;;;;;;13.45;2.38;;;11.80;75.10;;;;;;4945687;29;20403;-80
2022/12/29 11:02:04;;;;;;;11.90;2.42;;;11.80;74.70;;;;;;4952353;29;20057;-80
2022/12/29 11:04:42;;;;;;;5.10;2.03;;;11.80;74.50;;;;;;4957561;29;20039;-79
2022/12/29 11:07:09;;;;;;;7.88;2.05;;;11.90;74.30;;;;;;4950355;29;20578;-79
2022/12/29 11:09:38;;;;;;;6.70;1.73;;;11.90;73.80;;;;;;4957418;29;20034;-79
2022/12/29 11:12:18;;;;;;;7.43;1.88;;;11.90;73.10;;;;;;4945297;29;20035;-79
2022/12/29 11:14:44;;;;;;;7.47;2.00;;;11.90;73.20;;;;;;4949260;29;20036;-79
2022/12/29 11:17:15;;;;;;;10.75;2.05;;;11.90;72.90;;;;;;4952951;29;20028;-79
2022/12/29 11:19:41;;;;;;;5.55;1.40;;;12.00;72.40;;;;;;4957665;29;20119;-79
2022/12/29 11:22:28;;;;;;;7.28;1.92;;;12.00;72.50;;;;;;4955640;29;20055;-79
2022/12/29 11:24:54;;;;;;;5.82;2.33;;;12.00;71.80;;;;;;4939006;29;20039;-80
2022/12/29 11:27:25;;;;;;;7.38;1.98;;;12.10;71.20;;;;;;4940571;29;20019;-80
2022/12/29 11:29:53;;;;;;;18.63;2.80;;;12.10;70.30;;;;;;4946971;29;20035;-80
2022/12/29 11:32:23;;;;;;;8.32;1.98;;;12.00;69.60;;;;;;4954755;29;20079;-80
2022/12/29 11:34:49;;;;;;;5.97;1.10;;;12.00;70.10;;;;;;4954624;29;20027;-80
2022/12/29 11:37:23;;;;;;;4.90;1.27;;;12.10;69.90;;;;;;4951859;29;20115;-80
2022/12/29 11:39:59;;;;;;;11.02;2.47;;;12.10;69.10;;;;;;4954191;29;20024;-79
2022/12/29 11:42:39;;;;;;;8.25;1.92;;;12.10;69.50;;;;;;4955777;29;20028;-80
2022/12/29 11:45:17;;;;;;;4.53;1.60;;;12.20;69.10;;;;;;4955709;29;20491;-80
2022/12/29 11:47:47;;;;;;;9.88;1.52;;;12.20;68.90;;;;;;4947264;29;20020;-79
2022/12/29 11:50:29;;;;;;;9.77;1.90;;;12.30;69.50;;;;;;4951430;29;20047;-80
2022/12/29 11:53:19;;;;;;;7.88;2.17;;;12.30;69.00;;;;;;4950129;29;20557;-80
2022/12/29 11:56:00;;;;;;;7.65;2.05;;;12.30;69.50;;;;;;4945852;29;20111;-80
2022/12/29 11:58:34;;;;;;;7.30;1.75;;;12.30;69.20;;;;;;4954180;28;20503;-80
2022/12/29 12:01:23;;;;;;;9.98;1.80;;;12.30;69.10;;;;;;4959651;29;20059;-80
2022/12/29 12:04:01;;;;;;;6.85;1.30;;;12.30;69.10;;;;;;4959467;29;20448;-80
2022/12/29 12:06:29;;;;;;;7.85;2.22;;;12.40;69.60;;;;;;4960756;29;20035;-80
2022/12/29 12:08:59;;;;;;;7.88;1.70;;;12.40;69.90;;;;;;4960425;29;20058;-80
2022/12/29 12:11:37;;;;;;;8.57;2.05;;;12.50;69.10;;;;;;4959838;29;20039;-80
2022/12/29 12:14:21;;;;;;;7.97;1.83;;;12.60;69.60;;;;;;4958701;28;20039;-80
2022/12/29 12:16:58;;;;;;;6.53;2.20;;;12.70;69.70;;;;;;4949728;29;20470;-80
2022/12/29 12:20:08;;;;;;;13.23;2.10;;;12.60;68.70;;;;;;4947915;29;20027;-79
2022/12/29 12:22:43;;;;;;;7.60;1.63;;;12.50;68.60;;;;;;4921946;29;20126;-80
2022/12/29 12:25:18;;;;;;;4.85;1.50;;;12.60;68.90;;;;;;4952731;29;20034;-80
2022/12/29 12:27:57;;;;;;;4.25;1.20;;;12.60;68.80;;;;;;4946392;28;20036;-80
2022/12/29 12:30:26;;;;;;;7.53;1.77;;;12.70;68.40;;;;;;4960057;29;20024;-80
2022/12/29 12:32:56;;;;;;;10.18;1.35;;;12.80;68.30;;;;;;4960237;29;20412;-80
2022/12/29 12:35:24;;;;;;;8.15;1.65;;;12.80;68.60;;;;;;4959816;29;20035;-80
2022/12/29 12:38:13;;;;;;;4.75;1.77;;;12.80;67.60;;;;;;4959630;29;20027;-80
2022/12/29 12:40:50;;;;;;;6.80;2.05;;;12.80;68.00;;;;;;4941267;28;20038;-80
2022/12/29 12:43:16;;;;;;;6.32;1.42;;;12.90;67.80;;;;;;4958751;29;20031;-80
2022/12/29 12:46:09;;;;;;;5.90;1.60;;;13.00;66.90;;;;;;4953382;29;20042;-80
2022/12/29 12:49:03;;;;;;;9.68;1.80;;;13.10;66.80;;;;;;4956001;29;20035;-80
2022/12/29 12:51:55;;;;;;;4.88;1.55;;;13.00;66.40;;;;;;4954002;29;20027;-80
2022/12/29 12:54:42;;;;;;;4.85;1.45;;;13.00;67.00;;;;;;4957228;29;20055;-80
2022/12/29 12:57:35;;;;;;;4.55;1.02;;;12.80;66.60;;;;;;4959828;29;20023;-80
2022/12/29 13:00:06;;;;;;;11.68;2.00;;;12.80;66.40;;;;;;4955827;29;20027;-80
2022/12/29 13:02:49;;;;;;;4.55;1.80;;;12.80;66.10;;;;;;4959218;29;20098;-80
2022/12/29 13:05:52;;;;;;;9.40;1.50;;;12.70;66.50;;;;;;4955877;29;20042;-79
2022/12/29 13:08:45;;;;;;;5.45;1.85;;;12.60;66.60;;;;;;4957351;28;20804;-80
2022/12/29 13:11:29;;;;;;;7.45;1.95;;;12.70;67.20;;;;;;4959463;29;20082;-80
2022/12/29 13:14:04;;;;;;;14.05;1.95;;;12.70;67.40;;;;;;4971860;28;20066;-80
2022/12/29 13:17:06;;;;;;;8.20;2.03;;;12.70;67.00;;;;;;4959391;29;20023;-80
2022/12/29 13:19:50;;;;;;;5.45;2.38;;;12.70;67.70;;;;;;4947891;29;20027;-79
2022/12/29 13:22:24;;;;;;;8.15;1.70;;;12.70;67.90;;;;;;4952680;29;20034;-80
2022/12/29 13:25:20;;;;;;;7.85;2.05;;;12.70;67.30;;;;;;4959398;29;20023;-80
2022/12/29 13:28:10;;;;;;;4.35;1.20;;;12.60;66.90;;;;;;4944276;29;20039;-80
2022/12/29 13:30:45;;;;;;;4.28;1.00;;;12.50;68.10;;;;;;4950697;29;20086;-79
2022/12/29 13:33:16;;;;;;;5.70;1.30;;;12.30;71.80;;;;;;4945541;29;20043;-79
2022/12/29 13:36:14;;;;;;;7.63;1.45;;;12.20;74.30;;;;;;4949753;29;20066;-79
2022/12/29 13:38:42;;;;;;;6.68;1.42;;;12.20;74.90;;;;;;4945731;29;20049;-79
2022/12/29 13:41:18;;;;;;;8.82;1.88;;;12.10;75.40;;;;;;4959027;29;20037;-80
2022/12/29 13:43:46;;;;;;;9.38;2.22;;;12.00;76.20;;;;;;4957653;29;20066;-80